This is the latest recevied weather packets stored in our database for station/object BG5HLN-13. If no packets are shown the sender has not sent any weather packets the latest 10 day(s).
| Time | Temp. | Humidity | Pressure | Rain* | Wind** | Luminosity | Snow |
|---|---|---|---|---|---|---|---|
| 1778070186 | 22.22° C | 80% | 1010.7 hPa | 0 mm | - | - | - |
| 1778069582 | 22.22° C | 80% | 1010.7 hPa | 0 mm | - | - | - |
| 1778068386 | 22.22° C | 80% | 1010.8 hPa | 0 mm | - | - | - |
| 1778067783 | 22.22° C | 80% | 1010.7 hPa | 0 mm | - | - | - |
| 1778063586 | 23.33° C | 77% | 1010.1 hPa | 0 mm | - | - | - |
| 1778062985 | 23.33° C | 76% | 1010.2 hPa | 0 mm | - | - | - |
| 1778061185 | 23.89° C | 75% | 1009.9 hPa | 0 mm | - | - | - |
| 1778056385 | 25° C | 68% | 1009.7 hPa | 0 mm | - | - | - |
| 1778055785 | 25.56° C | 67% | 1009.9 hPa | 0 mm | - | - | - |
| 1778055184 | 25.56° C | 65% | 1010.1 hPa | 0 mm | - | - | - |
| 1778055182 | 25.56° C | 65% | 1010.1 hPa | 0 mm | - | - | - |
| 1778052785 | 26.67° C | 64% | 1010.2 hPa | 0 mm | - | - | - |
| 1778052184 | 26.67° C | 64% | 1010.2 hPa | 0 mm | - | - | - |
| 1778051585 | 27.22° C | 62% | 1010.4 hPa | 0 mm | - | - | - |
| 1778051582 | 27.22° C | 62% | 1010.3 hPa | 0 mm | - | - | - |
| 1778050985 | 27.22° C | 63% | 1010.5 hPa | 0 mm | - | - | - |
| 1778049184 | 27.78° C | 62% | 1010.8 hPa | 0 mm | - | - | - |
| 1778048584 | 27.78° C | 62% | 1010.9 hPa | 0 mm | - | - | - |
| 1778047982 | 27.78° C | 63% | 1011 hPa | 0 mm | - | - | - |
| 1778047383 | 27.78° C | 63% | 1011.1 hPa | 0 mm | - | - | - |
| 1778046181 | 28.33° C | 62% | 1011.4 hPa | 0 mm | - | - | - |
| 1778045583 | 28.33° C | 63% | 1011.7 hPa | 0 mm | - | - | - |
| 1778044984 | 28.33° C | 63% | 1011.8 hPa | 0 mm | - | - | - |
| 1778044384 | 28.33° C | 65% | 1011.9 hPa | 0 mm | - | - | - |
| 1778044381 | 28.33° C | 64% | 1011.9 hPa | 0 mm | - | - | - |
* Rain latest hour (hover to see other rain measurements)
** Current wind speed in m/s (hover to see current wind gust speed)